Time;durP1;ratioP1;P1;durP2;ratioP2;P2;SDS_P1;SDS_P2;PMS_P1;PMS_P2;Temp;Humidity;BMP_temperature;BMP_pressure;BME280_temperature;BME280_humidity;BME280_pressure;Samples;Min_cycle;Max_cycle;Signal;HPM_P1;HPM_P2
2023/10/07 00:03:06;;;;;;;8.90;3.85;;;15.80;84.90;;;;;;5052429;28;20031;-31
2023/10/07 00:05:35;;;;;;;8.30;3.65;;;15.70;85.50;;;;;;5052152;28;20496;-28
2023/10/07 00:08:04;;;;;;;8.80;3.75;;;15.80;85.00;;;;;;5052549;28;20017;-28
2023/10/07 00:10:30;;;;;;;7.15;3.60;;;15.80;85.00;;;;;;5052091;28;20056;-31
2023/10/07 00:12:57;;;;;;;6.32;3.80;;;15.80;85.00;;;;;;5052018;28;20021;-30
2023/10/07 00:15:28;;;;;;;6.25;3.60;;;15.80;85.00;;;;;;5050508;28;20029;-28
2023/10/07 00:17:57;;;;;;;7.68;3.72;;;15.80;85.00;;;;;;5051924;28;20025;-28
2023/10/07 00:20:23;;;;;;;8.27;3.92;;;15.80;85.00;;;;;;5052026;28;20468;-27
2023/10/07 00:22:54;;;;;;;6.07;3.42;;;15.90;85.10;;;;;;5051855;28;20052;-28
2023/10/07 00:25:23;;;;;;;8.32;3.70;;;15.90;85.10;;;;;;5051462;28;20202;-28
2023/10/07 00:27:48;;;;;;;7.25;3.50;;;15.90;85.00;;;;;;5051718;28;20025;-28
2023/10/07 00:30:16;;;;;;;5.47;3.25;;;15.90;85.00;;;;;;5051713;28;20052;-31
2023/10/07 00:32:50;;;;;;;9.60;3.55;;;15.90;85.00;;;;;;5052004;28;20021;-28
2023/10/07 00:35:19;;;;;;;9.93;3.70;;;15.90;85.00;;;;;;5051481;28;20028;-30
2023/10/07 00:37:45;;;;;;;6.53;3.15;;;15.90;85.00;;;;;;5051715;28;20037;-29
2023/10/07 00:40:14;;;;;;;9.45;3.65;;;15.90;85.10;;;;;;5051458;28;20461;-28
2023/10/07 00:42:44;;;;;;;11.07;3.85;;;15.90;85.10;;;;;;5051909;28;20377;-29
2023/10/07 00:45:14;;;;;;;6.82;3.70;;;15.90;85.10;;;;;;5050189;28;20036;-33
2023/10/07 00:47:41;;;;;;;7.28;3.75;;;15.90;85.10;;;;;;5051467;28;20036;-38
2023/10/07 00:50:10;;;;;;;8.25;3.90;;;15.90;85.20;;;;;;5051234;28;20021;-31
2023/10/07 00:52:46;;;;;;;8.00;4.10;;;15.80;85.30;;;;;;5051350;28;20075;-27
2023/10/07 00:55:18;;;;;;;6.55;3.55;;;15.80;85.30;;;;;;5051479;28;20041;-26
2023/10/07 00:57:53;;;;;;;7.53;4.20;;;15.80;85.40;;;;;;5051548;28;20024;-31
2023/10/07 01:00:40;;;;;;;9.18;4.05;;;15.80;85.50;;;;;;5051380;28;20055;-32
2023/10/07 01:11:19;;;;;;;8.82;4.18;;;15.70;85.80;;;;;;5055599;28;20060;-27
2023/10/07 01:13:56;;;;;;;7.30;3.83;;;15.70;85.80;;;;;;5055457;28;20044;-28
2023/10/07 01:16:56;;;;;;;8.32;3.83;;;15.70;85.80;;;;;;5055395;28;20116;-28
2023/10/07 01:19:36;;;;;;;8.25;4.45;;;15.80;85.90;;;;;;5054894;28;20044;-28
2023/10/07 01:22:12;;;;;;;7.07;3.78;;;15.80;85.90;;;;;;5055293;28;20599;-27
2023/10/07 01:27:16;;;;;;;8.82;4.38;;;15.70;85.90;;;;;;5055193;28;20033;-30
2023/10/07 01:29:42;;;;;;;6.40;3.97;;;15.70;86.00;;;;;;5054975;28;20039;-28
2023/10/07 01:32:12;;;;;;;10.07;4.63;;;15.80;86.00;;;;;;5055185;28;20025;-30
2023/10/07 01:34:38;;;;;;;11.80;4.20;;;15.80;86.10;;;;;;5055109;28;20028;-32
2023/10/07 01:37:11;;;;;;;11.32;4.80;;;15.70;86.10;;;;;;5054984;28;20116;-30
2023/10/07 01:39:40;;;;;;;8.55;5.25;;;15.80;86.20;;;;;;5055167;28;20017;-31
2023/10/07 01:42:12;;;;;;;11.38;4.97;;;15.80;86.20;;;;;;5054845;28;20021;-28
2023/10/07 01:44:41;;;;;;;9.90;4.97;;;15.80;86.30;;;;;;5055089;28;20377;-29
2023/10/07 01:47:16;;;;;;;7.63;4.47;;;15.80;86.30;;;;;;5054735;28;20021;-28
2023/10/07 01:49:43;;;;;;;11.45;4.47;;;15.80;86.30;;;;;;5054781;28;20393;-27
2023/10/07 01:52:09;;;;;;;11.77;5.57;;;15.80;86.30;;;;;;5054771;28;20053;-28
2023/10/07 01:54:35;;;;;;;13.70;5.65;;;15.80;86.30;;;;;;5054518;28;20061;-28
2023/10/07 01:57:04;;;;;;;10.40;4.82;;;15.90;86.40;;;;;;5054393;28;20025;-28
2023/10/07 01:59:30;;;;;;;8.60;4.78;;;15.90;86.40;;;;;;5054754;28;20039;-27
2023/10/07 02:02:11;;;;;;;11.10;5.10;;;15.90;86.40;;;;;;5054520;28;20013;-27
2023/10/07 02:04:37;;;;;;;12.80;5.45;;;15.90;86.30;;;;;;5054317;28;20104;-29
2023/10/07 02:07:02;;;;;;;10.90;5.18;;;15.90;86.30;;;;;;5054509;28;20055;-28
2023/10/07 02:09:35;;;;;;;10.93;5.18;;;15.90;86.50;;;;;;5054295;28;20017;-29
2023/10/07 02:12:01;;;;;;;9.75;5.03;;;15.90;86.50;;;;;;5054549;28;20057;-30
2023/10/07 02:14:27;;;;;;;10.60;5.50;;;15.90;86.40;;;;;;5054157;28;20027;-30
2023/10/07 02:16:56;;;;;;;10.13;5.60;;;16.00;87.00;;;;;;5053833;28;20458;-26
2023/10/07 02:19:29;;;;;;;12.75;6.05;;;16.00;86.70;;;;;;5053677;28;20017;-30
2023/10/07 02:22:07;;;;;;;13.55;5.95;;;16.00;86.70;;;;;;5054502;28;20025;-27
2023/10/07 02:24:41;;;;;;;10.77;5.68;;;16.00;86.80;;;;;;5054118;28;20059;-27
2023/10/07 02:27:17;;;;;;;13.75;6.10;;;16.00;86.70;;;;;;5054247;28;20117;-29
2023/10/07 02:29:43;;;;;;;12.35;6.50;;;16.00;86.80;;;;;;5052719;28;20037;-31
2023/10/07 02:32:17;;;;;;;10.65;6.05;;;16.00;86.90;;;;;;5052325;28;20067;-27
2023/10/07 02:34:54;;;;;;;14.15;6.93;;;16.00;86.90;;;;;;5052698;28;20046;-28
2023/10/07 02:37:31;;;;;;;10.48;6.38;;;16.00;87.00;;;;;;5053695;28;20097;-28
2023/10/07 02:40:02;;;;;;;12.85;5.85;;;16.00;87.00;;;;;;5054108;28;20025;-32
2023/10/07 02:42:28;;;;;;;13.00;6.82;;;16.10;87.10;;;;;;5054126;28;20104;-29
2023/10/07 02:45:00;;;;;;;12.45;6.28;;;16.10;87.20;;;;;;5054065;28;20464;-29
2023/10/07 02:47:30;;;;;;;11.98;6.50;;;16.00;87.20;;;;;;5052023;28;20439;-27
2023/10/07 02:50:00;;;;;;;13.02;6.57;;;16.00;87.20;;;;;;5053776;28;20029;-31
2023/10/07 02:52:33;;;;;;;13.98;6.35;;;16.10;87.20;;;;;;5053756;28;20024;-27
2023/10/07 02:57:55;;;;;;;11.93;6.65;;;16.10;87.30;;;;;;5053546;28;20035;-28
2023/10/07 03:00:35;;;;;;;13.23;7.15;;;16.10;87.40;;;;;;5053626;28;20025;-29
2023/10/07 03:05:58;;;;;;;13.18;6.82;;;16.10;87.40;;;;;;5053520;28;20098;-28
2023/10/07 03:08:31;;;;;;;16.05;7.43;;;16.10;87.40;;;;;;5053324;28;20068;-27
2023/10/07 03:11:04;;;;;;;13.73;7.10;;;16.10;87.50;;;;;;5053576;28;20014;-29
2023/10/07 03:13:38;;;;;;;12.27;6.75;;;16.10;87.50;;;;;;5053551;28;20082;-30
2023/10/07 03:21:42;;;;;;;13.02;7.25;;;16.10;87.60;;;;;;5053505;28;20052;-29
2023/10/07 03:24:13;;;;;;;13.85;7.43;;;16.10;87.60;;;;;;5053107;28;20066;-30
2023/10/07 03:26:41;;;;;;;15.20;7.63;;;16.10;87.70;;;;;;5053085;28;20055;-33
2023/10/07 03:29:07;;;;;;;12.52;6.90;;;16.10;87.80;;;;;;5052491;28;20409;-27
2023/10/07 03:31:35;;;;;;;15.88;7.43;;;16.10;87.80;;;;;;5053143;28;20468;-27
2023/10/07 03:34:07;;;;;;;12.38;6.88;;;16.20;87.90;;;;;;5052950;28;20033;-27
2023/10/07 03:37:14;;;;;;;12.23;7.03;;;16.20;87.90;;;;;;5052515;28;20061;-27
2023/10/07 03:42:18;;;;;;;12.70;6.53;;;16.20;87.90;;;;;;5052891;28;20064;-27
2023/10/07 03:44:46;;;;;;;12.27;7.13;;;16.20;87.90;;;;;;5052732;28;20053;-27
2023/10/07 03:47:13;;;;;;;11.65;6.88;;;16.20;87.90;;;;;;5052304;28;20025;-28
2023/10/07 03:49:42;;;;;;;13.23;8.10;;;16.20;88.00;;;;;;5052734;28;20217;-28
2023/10/07 03:52:12;;;;;;;13.25;7.00;;;16.20;88.00;;;;;;5051936;28;20052;-28
2023/10/07 03:54:40;;;;;;;13.90;7.68;;;16.20;88.00;;;;;;5050848;28;20048;-28
2023/10/07 03:57:07;;;;;;;13.77;7.18;;;16.30;88.10;;;;;;5052175;28;20021;-29
2023/10/07 03:59:36;;;;;;;13.73;7.88;;;16.30;88.10;;;;;;5052612;28;20031;-27
2023/10/07 04:05:00;;;;;;;13.63;7.90;;;16.30;88.30;;;;;;5052430;28;20036;-29
2023/10/07 04:07:27;;;;;;;14.23;7.63;;;16.30;88.20;;;;;;5052090;28;20068;-27
2023/10/07 04:09:53;;;;;;;12.98;7.93;;;16.30;88.20;;;;;;5050817;28;20054;-27
2023/10/07 04:12:19;;;;;;;11.38;7.43;;;16.40;88.20;;;;;;5052049;28;20115;-27
2023/10/07 04:14:44;;;;;;;13.82;7.55;;;16.40;88.20;;;;;;5052408;28;20087;-28
2023/10/07 04:17:13;;;;;;;12.80;7.55;;;16.40;88.30;;;;;;5051748;28;20146;-27
2023/10/07 04:19:40;;;;;;;14.30;7.85;;;16.40;88.30;;;;;;5052083;28;20025;-31
2023/10/07 04:22:08;;;;;;;13.52;7.97;;;16.40;88.30;;;;;;5052210;28;20456;-28
2023/10/07 04:24:35;;;;;;;13.27;7.47;;;16.40;88.40;;;;;;5052025;28;20028;-29
2023/10/07 04:27:05;;;;;;;14.93;8.18;;;16.40;88.40;;;;;;5051850;28;20040;-28
2023/10/07 04:29:31;;;;;;;13.65;8.38;;;16.40;88.40;;;;;;5051807;28;20048;-31
2023/10/07 04:31:58;;;;;;;13.48;7.72;;;16.40;88.40;;;;;;5051739;28;20029;-34
2023/10/07 04:34:33;;;;;;;13.40;8.52;;;16.40;88.40;;;;;;5052127;28;20462;-28
2023/10/07 04:39:37;;;;;;;13.68;8.20;;;16.40;88.60;;;;;;5052063;28;20029;-28
2023/10/07 04:42:07;;;;;;;13.57;7.90;;;16.40;88.70;;;;;;5051103;28;20491;-28
2023/10/07 04:47:24;;;;;;;14.38;8.63;;;16.40;88.80;;;;;;5051712;28;20053;-30
2023/10/07 04:52:39;;;;;;;16.77;7.82;;;16.50;88.80;;;;;;5051639;28;20104;-27
2023/10/07 04:55:13;;;;;;;12.48;7.72;;;16.50;88.80;;;;;;5051308;28;20021;-27
2023/10/07 04:57:44;;;;;;;13.02;7.82;;;16.50;88.80;;;;;;5051521;28;20369;-28
2023/10/07 05:03:01;;;;;;;13.07;8.10;;;16.50;88.90;;;;;;5051807;28;20368;-28
2023/10/07 05:05:31;;;;;;;16.75;7.72;;;16.50;88.90;;;;;;5049994;28;20067;-28
2023/10/07 05:08:08;;;;;;;14.25;8.07;;;16.50;89.00;;;;;;5051597;28;20032;-28
2023/10/07 05:10:38;;;;;;;15.43;7.50;;;16.50;89.00;;;;;;5051559;28;20384;-29
2023/10/07 05:13:06;;;;;;;17.13;7.47;;;16.50;89.00;;;;;;5051298;28;20028;-31
2023/10/07 05:15:33;;;;;;;15.73;7.78;;;16.50;89.10;;;;;;5051409;28;20025;-28
2023/10/07 05:18:01;;;;;;;15.85;7.80;;;16.50;89.10;;;;;;5051545;28;20044;-29
2023/10/07 05:20:28;;;;;;;15.63;7.70;;;16.60;89.20;;;;;;5051233;28;20088;-29
2023/10/07 05:22:54;;;;;;;12.82;7.32;;;16.50;89.10;;;;;;5051178;28;20021;-28
2023/10/07 05:25:23;;;;;;;16.33;8.23;;;16.60;89.20;;;;;;5050891;28;20060;-28
2023/10/07 05:27:50;;;;;;;13.88;7.55;;;16.60;89.20;;;;;;5051376;28;20044;-37
2023/10/07 05:30:18;;;;;;;12.98;8.30;;;16.60;89.10;;;;;;5050951;28;20095;-32
2023/10/07 05:32:47;;;;;;;17.17;8.18;;;16.60;89.10;;;;;;5051695;28;20346;-28
2023/10/07 05:35:18;;;;;;;15.50;7.97;;;16.60;89.20;;;;;;5051247;28;20477;-29
2023/10/07 05:37:47;;;;;;;14.90;8.05;;;16.60;89.10;;;;;;5051194;28;20334;-26
2023/10/07 05:40:15;;;;;;;14.63;7.97;;;16.50;89.10;;;;;;5050987;28;20021;-34
2023/10/07 05:42:42;;;;;;;15.65;8.23;;;16.60;89.20;;;;;;5051172;28;20029;-28
2023/10/07 05:45:08;;;;;;;12.27;8.38;;;16.60;89.10;;;;;;5051291;28;20362;-28
2023/10/07 05:47:34;;;;;;;13.32;8.20;;;16.50;89.10;;;;;;5050984;28;20053;-28
2023/10/07 05:50:00;;;;;;;12.15;8.40;;;16.60;89.10;;;;;;5051033;28;20049;-27
2023/10/07 05:52:30;;;;;;;12.63;8.25;;;16.60;89.10;;;;;;5052662;28;20053;-37
2023/10/07 05:54:56;;;;;;;14.38;7.95;;;16.50;89.00;;;;;;5054553;28;20021;-28
2023/10/07 05:57:23;;;;;;;15.13;8.85;;;16.60;89.10;;;;;;5054407;28;20453;-27
2023/10/07 05:59:50;;;;;;;12.77;8.88;;;16.60;89.10;;;;;;5054466;28;20017;-31
2023/10/07 06:02:16;;;;;;;17.40;10.00;;;16.60;89.10;;;;;;5054762;28;20028;-30
2023/10/07 06:04:44;;;;;;;15.63;9.25;;;16.60;89.00;;;;;;5054324;28;20493;-29
2023/10/07 06:07:12;;;;;;;16.75;9.82;;;16.50;89.00;;;;;;5054151;28;20033;-29
2023/10/07 06:09:41;;;;;;;15.18;9.18;;;16.60;89.10;;;;;;5053128;28;20036;-29
2023/10/07 06:12:07;;;;;;;18.90;10.00;;;16.60;89.10;;;;;;5054576;28;20484;-32
2023/10/07 06:14:33;;;;;;;15.38;9.68;;;16.60;89.40;;;;;;5054287;28;20028;-29
2023/10/07 06:17:00;;;;;;;16.10;9.57;;;16.60;89.20;;;;;;5054245;28;20484;-29
2023/10/07 06:19:26;;;;;;;14.45;9.95;;;16.60;89.20;;;;;;5054105;28;20020;-32
2023/10/07 06:21:52;;;;;;;17.92;8.82;;;16.60;89.20;;;;;;5054230;28;20112;-28
2023/10/07 06:24:24;;;;;;;15.52;9.57;;;16.60;89.20;;;;;;5054401;28;20032;-29
2023/10/07 06:26:50;;;;;;;19.50;9.88;;;16.60;89.20;;;;;;5053956;28;20025;-30
2023/10/07 06:29:19;;;;;;;17.33;10.23;;;16.60;89.20;;;;;;5054048;28;20523;-28
2023/10/07 06:32:12;;;;;;;18.42;10.13;;;16.70;89.20;;;;;;5054222;28;20025;-29
2023/10/07 06:34:41;;;;;;;;;;;16.70;89.10;;;;;;5054644;28;20032;-28
2023/10/07 06:37:07;;;;;;;15.50;8.80;;;16.70;89.00;;;;;;5053676;28;19913;-29
2023/10/07 06:39:32;;;;;;;14.68;8.25;;;16.70;89.00;;;;;;5054165;28;20036;-32
2023/10/07 06:41:58;;;;;;;15.95;8.65;;;16.70;88.90;;;;;;5053773;28;20060;-29
2023/10/07 06:44:24;;;;;;;14.63;8.65;;;16.80;89.00;;;;;;5053564;28;20071;-30
2023/10/07 06:47:02;;;;;;;14.93;8.48;;;16.80;89.00;;;;;;5053659;28;20425;-32
2023/10/07 06:49:28;;;;;;;18.35;9.82;;;16.90;89.00;;;;;;5053697;28;20441;-38
2023/10/07 06:51:54;;;;;;;15.43;9.50;;;16.90;89.10;;;;;;5053694;28;20049;-28
2023/10/07 06:54:35;;;;;;;15.30;8.52;;;16.90;89.10;;;;;;5053735;28;20508;-31
2023/10/07 06:57:10;;;;;;;16.30;9.30;;;17.00;89.10;;;;;;5053538;28;20504;-31
2023/10/07 06:59:40;;;;;;;17.02;8.73;;;17.00;89.00;;;;;;5053816;28;20022;-29
2023/10/07 07:02:06;;;;;;;15.50;8.50;;;17.00;89.00;;;;;;5053682;28;20488;-32
2023/10/07 07:04:33;;;;;;;16.45;9.07;;;17.10;89.10;;;;;;5052586;28;20063;-30
2023/10/07 07:07:09;;;;;;;16.48;9.15;;;17.10;89.00;;;;;;5053510;28;20436;-30
2023/10/07 07:12:18;;;;;;;16.85;9.73;;;17.20;89.20;;;;;;5053497;28;20123;-32
2023/10/07 07:14:50;;;;;;;14.57;9.10;;;17.10;89.10;;;;;;5053600;28;20025;-33
2023/10/07 07:17:30;;;;;;;15.43;8.90;;;17.20;89.20;;;;;;5053375;28;20029;-28
2023/10/07 07:22:37;;;;;;;15.60;9.13;;;17.20;89.20;;;;;;5053481;28;20028;-29
2023/10/07 07:25:07;;;;;;;15.95;9.63;;;17.20;89.20;;;;;;5053194;28;20025;-29
2023/10/07 07:27:34;;;;;;;17.27;9.65;;;17.30;89.20;;;;;;5052790;28;20029;-29
2023/10/07 07:30:03;;;;;;;16.90;9.07;;;17.30;89.20;;;;;;5052823;28;20044;-29
2023/10/07 07:32:32;;;;;;;14.27;8.52;;;17.30;89.20;;;;;;5052880;28;20017;-28
2023/10/07 07:35:04;;;;;;;13.63;8.30;;;17.30;89.10;;;;;;5052893;28;20032;-33
2023/10/07 07:37:34;;;;;;;14.60;8.00;;;17.40;89.20;;;;;;5052272;28;20040;-30
2023/10/07 07:40:09;;;;;;;13.35;7.30;;;17.40;89.10;;;;;;5052710;28;20108;-30
2023/10/07 07:42:35;;;;;;;16.10;8.30;;;17.50;89.00;;;;;;5053108;28;20022;-38
2023/10/07 07:45:01;;;;;;;22.27;9.90;;;17.40;88.90;;;;;;5052741;28;20024;-31
2023/10/07 07:47:31;;;;;;;12.30;7.15;;;17.50;88.90;;;;;;5052662;28;20025;-28
2023/10/07 07:50:02;;;;;;;13.07;7.00;;;17.50;88.80;;;;;;5052772;28;20036;-29
2023/10/07 07:52:27;;;;;;;15.98;6.88;;;17.60;88.80;;;;;;5052753;28;20025;-29
2023/10/07 07:54:54;;;;;;;15.77;7.93;;;17.60;88.80;;;;;;5052546;28;20410;-28
2023/10/07 07:57:22;;;;;;;15.82;8.80;;;17.60;88.70;;;;;;5052073;28;20029;-28
2023/10/07 07:59:48;;;;;;;15.75;7.80;;;17.60;88.60;;;;;;5052439;28;20404;-30
2023/10/07 08:02:16;;;;;;;15.60;6.55;;;17.60;88.60;;;;;;5052519;28;20104;-28
2023/10/07 08:04:50;;;;;;;11.00;6.75;;;17.60;88.50;;;;;;5052457;28;20025;-30
2023/10/07 08:07:21;;;;;;;;;;;17.60;88.50;;;;;;5052886;28;20033;-27
2023/10/07 08:09:50;;;;;;;14.20;8.23;;;17.60;88.50;;;;;;5052144;28;19908;-27
2023/10/07 08:12:28;;;;;;;13.63;8.05;;;17.50;88.40;;;;;;5052606;28;20028;-31
2023/10/07 08:15:06;;;;;;;14.02;7.22;;;17.50;89.10;;;;;;5052406;28;20021;-28
2023/10/07 08:17:32;;;;;;;14.23;8.80;;;17.50;88.60;;;;;;5052034;28;20036;-28
2023/10/07 08:20:08;;;;;;;12.60;7.93;;;17.50;88.50;;;;;;5052064;28;20014;-30
2023/10/07 08:22:37;;;;;;;17.05;8.23;;;17.50;88.50;;;;;;5052197;28;20481;-39
2023/10/07 08:25:05;;;;;;;16.05;9.00;;;17.50;88.40;;;;;;5052005;28;20028;-29
2023/10/07 08:27:43;;;;;;;17.58;9.02;;;17.60;88.40;;;;;;5051695;28;20083;-30
2023/10/07 08:30:12;;;;;;;15.32;9.20;;;17.60;88.30;;;;;;5051579;28;20341;-29
2023/10/07 08:32:41;;;;;;;14.43;9.02;;;17.70;88.20;;;;;;5051827;28;20025;-30
2023/10/07 08:35:17;;;;;;;11.18;7.63;;;17.70;88.00;;;;;;5051866;28;20071;-28
2023/10/07 08:37:47;;;;;;;14.98;8.13;;;17.80;87.90;;;;;;5051850;28;20366;-29
2023/10/07 08:40:28;;;;;;;14.43;7.80;;;17.90;87.70;;;;;;5050221;28;20049;-30
2023/10/07 08:43:01;;;;;;;14.82;8.20;;;17.90;87.60;;;;;;5051829;28;20404;-29
2023/10/07 08:45:33;;;;;;;15.38;8.15;;;18.00;87.50;;;;;;5051922;28;20067;-27
2023/10/07 08:48:19;;;;;;;17.75;9.77;;;18.00;87.30;;;;;;5051024;28;20025;-31
2023/10/07 08:50:55;;;;;;;13.90;8.65;;;18.10;87.10;;;;;;5050002;28;20029;-29
2023/10/07 08:53:26;;;;;;;15.98;9.30;;;18.10;87.00;;;;;;5049937;28;20021;-29
2023/10/07 08:55:57;;;;;;;17.23;9.02;;;18.10;86.90;;;;;;5050351;28;20028;-26
2023/10/07 08:58:27;;;;;;;17.60;8.73;;;18.10;86.80;;;;;;5051675;28;20017;-28
2023/10/07 09:00:54;;;;;;;12.98;7.85;;;18.20;86.80;;;;;;5051649;28;20071;-31
2023/10/07 09:03:26;;;;;;;14.40;8.65;;;18.20;86.50;;;;;;5051480;28;20127;-28
2023/10/07 09:05:51;;;;;;;15.68;8.77;;;18.20;86.30;;;;;;5051591;28;20075;-28
2023/10/07 09:08:22;;;;;;;14.68;7.90;;;18.30;86.30;;;;;;5051369;28;20033;-26
2023/10/07 09:10:50;;;;;;;15.82;8.10;;;18.30;86.10;;;;;;5051389;28;20025;-29
2023/10/07 09:13:29;;;;;;;11.98;8.00;;;18.40;86.00;;;;;;5051476;28;20113;-29
2023/10/07 09:15:59;;;;;;;13.48;7.80;;;18.40;85.80;;;;;;5050293;28;20067;-29
2023/10/07 09:18:37;;;;;;;14.52;7.65;;;18.50;85.60;;;;;;5051289;28;20032;-28
2023/10/07 09:21:09;;;;;;;15.93;9.32;;;18.50;85.40;;;;;;5051203;28;20108;-32
2023/10/07 09:23:43;;;;;;;14.23;9.07;;;18.60;85.10;;;;;;5051371;28;20017;-31
2023/10/07 09:26:30;;;;;;;13.18;7.82;;;18.60;84.70;;;;;;5051208;28;20029;-28
2023/10/07 09:28:58;;;;;;;15.98;8.27;;;18.60;84.70;;;;;;5055233;28;20457;-28
2023/10/07 09:31:27;;;;;;;14.13;8.27;;;18.60;84.40;;;;;;5054221;28;20425;-28
2023/10/07 09:33:55;;;;;;;13.57;8.20;;;18.70;84.40;;;;;;5055325;28;20405;-29
2023/10/07 09:36:24;;;;;;;11.27;7.57;;;18.70;84.40;;;;;;5055019;28;20516;-30
2023/10/07 09:39:05;;;;;;;14.25;8.13;;;18.70;84.20;;;;;;5055053;28;20013;-27
2023/10/07 09:41:32;;;;;;;15.15;8.40;;;18.80;84.20;;;;;;5054932;28;20025;-31
2023/10/07 09:44:00;;;;;;;11.13;7.30;;;18.80;83.90;;;;;;5054977;28;20024;-28
2023/10/07 09:46:27;;;;;;;11.10;7.03;;;18.80;83.50;;;;;;5054870;28;20446;-27
2023/10/07 09:49:00;;;;;;;10.18;6.80;;;18.90;83.50;;;;;;5055104;28;20032;-29
2023/10/07 09:51:34;;;;;;;11.85;6.93;;;18.90;83.20;;;;;;5054488;28;20033;-34
2023/10/07 09:54:36;;;;;;;12.95;7.43;;;18.90;83.10;;;;;;5054642;28;20021;-27
2023/10/07 09:57:06;;;;;;;14.45;7.60;;;18.90;82.80;;;;;;5054727;28;20057;-28
2023/10/07 10:03:39;;;;;;;13.77;6.63;;;19.00;82.60;;;;;;5054803;28;20040;-28
2023/10/07 10:06:16;;;;;;;13.85;6.22;;;19.10;82.30;;;;;;5054620;28;20059;-29
2023/10/07 10:08:59;;;;;;;11.38;6.43;;;19.20;82.10;;;;;;5054515;28;20060;-29
2023/10/07 10:16:57;;;;;;;12.77;6.57;;;19.40;80.80;;;;;;5054416;28;20120;-28
2023/10/07 10:19:37;;;;;;;11.82;6.15;;;19.50;80.80;;;;;;5054662;28;20029;-30
2023/10/07 10:22:13;;;;;;;10.65;5.72;;;19.50;80.40;;;;;;5054551;28;20013;-29
2023/10/07 10:24:43;;;;;;;9.77;5.70;;;19.60;80.20;;;;;;5054481;28;20048;-29
2023/10/07 10:27:13;;;;;;;15.45;5.53;;;19.60;80.10;;;;;;5054344;28;20343;-27
2023/10/07 10:29:52;;;;;;;10.63;5.20;;;19.70;80.00;;;;;;5054098;28;20516;-30
2023/10/07 10:32:30;;;;;;;9.75;5.72;;;19.80;79.80;;;;;;5054392;28;20053;-27
2023/10/07 10:34:59;;;;;;;11.65;5.18;;;19.90;79.40;;;;;;5054292;28;20025;-29
2023/10/07 10:37:26;;;;;;;10.98;5.65;;;19.90;78.90;;;;;;5054077;28;20021;-27
2023/10/07 10:39:53;;;;;;;10.35;6.10;;;20.00;78.40;;;;;;5053050;28;20112;-32
2023/10/07 10:42:21;;;;;;;13.90;5.80;;;20.00;78.10;;;;;;5053131;28;20489;-29
2023/10/07 10:44:47;;;;;;;12.50;5.95;;;20.10;78.00;;;;;;5054117;28;20047;-30
2023/10/07 10:47:16;;;;;;;14.02;6.65;;;20.10;77.60;;;;;;5053474;28;20137;-31
2023/10/07 10:49:44;;;;;;;10.73;5.85;;;20.10;76.90;;;;;;5053613;28;20146;-29
2023/10/07 10:52:11;;;;;;;8.63;5.03;;;20.10;77.00;;;;;;5053890;28;20481;-30
2023/10/07 10:54:36;;;;;;;11.00;5.18;;;20.10;77.30;;;;;;5054006;28;20028;-27
2023/10/07 10:57:07;;;;;;;10.02;4.15;;;20.20;77.40;;;;;;5053510;28;20477;-28
2023/10/07 10:59:47;;;;;;;10.70;5.22;;;20.20;77.40;;;;;;5053956;28;20021;-31
2023/10/07 11:02:22;;;;;;;13.45;5.20;;;20.30;77.10;;;;;;5053445;28;20099;-31
2023/10/07 11:04:51;;;;;;;11.95;5.32;;;20.40;76.30;;;;;;5053755;28;20032;-27
2023/10/07 11:07:18;;;;;;;11.18;5.57;;;20.40;76.10;;;;;;5053668;28;20017;-28
2023/10/07 11:09:48;;;;;;;12.77;5.60;;;20.40;75.60;;;;;;5053618;28;20025;-31
2023/10/07 11:12:16;;;;;;;15.77;5.75;;;20.40;75.60;;;;;;5053649;28;20108;-28
2023/10/07 11:14:43;;;;;;;10.25;5.47;;;20.40;75.20;;;;;;5053388;28;20106;-29
2023/10/07 11:17:12;;;;;;;12.15;5.72;;;20.40;75.30;;;;;;5053223;28;20028;-31
2023/10/07 11:19:50;;;;;;;13.30;6.15;;;20.40;75.10;;;;;;5053454;28;20017;-30
2023/10/07 11:22:20;;;;;;;11.35;5.32;;;20.40;75.40;;;;;;5053523;28;20445;-29
2023/10/07 11:24:50;;;;;;;11.07;4.85;;;20.30;75.70;;;;;;5052956;28;20128;-29
2023/10/07 11:27:23;;;;;;;8.65;4.47;;;20.30;76.00;;;;;;5051911;28;20508;-30
2023/10/07 11:30:01;;;;;;;12.35;4.90;;;20.30;76.30;;;;;;5053144;28;20052;-29
2023/10/07 11:32:31;;;;;;;12.85;4.88;;;20.30;76.40;;;;;;5053412;28;20389;-29
2023/10/07 11:34:59;;;;;;;13.13;5.95;;;20.40;76.30;;;;;;5053311;28;20021;-35
2023/10/07 11:37:26;;;;;;;9.23;4.55;;;20.40;76.70;;;;;;5052936;28;20331;-29
2023/10/07 11:39:53;;;;;;;11.65;4.88;;;20.40;76.50;;;;;;5053060;28;20049;-28
2023/10/07 11:42:21;;;;;;;8.57;3.70;;;20.40;76.30;;;;;;5053006;28;20016;-28
2023/10/07 11:44:54;;;;;;;8.95;4.15;;;20.50;76.30;;;;;;5053031;28;20021;-29
2023/10/07 11:47:20;;;;;;;9.88;4.80;;;20.50;76.10;;;;;;5052793;28;20598;-29
2023/10/07 11:49:47;;;;;;;11.43;5.05;;;20.60;76.00;;;;;;5052315;28;20110;-26
2023/10/07 11:52:14;;;;;;;10.63;4.43;;;20.60;75.80;;;;;;5052496;28;20053;-29
2023/10/07 11:54:40;;;;;;;9.32;4.22;;;20.50;75.90;;;;;;5052706;28;20024;-37
2023/10/07 11:57:06;;;;;;;11.10;4.43;;;20.60;76.00;;;;;;5052508;28;20366;-29
2023/10/07 11:59:33;;;;;;;12.38;4.88;;;20.60;76.00;;;;;;5052667;28;20044;-30
2023/10/07 12:02:00;;;;;;;10.65;4.85;;;20.70;75.20;;;;;;5051139;28;20028;-28
2023/10/07 12:04:26;;;;;;;14.30;4.72;;;20.80;75.10;;;;;;5052300;28;20025;-28
2023/10/07 12:06:53;;;;;;;8.35;3.90;;;20.80;75.10;;;;;;5052049;28;20078;-29
2023/10/07 12:09:21;;;;;;;10.55;3.72;;;20.80;75.00;;;;;;5052277;28;20115;-29
2023/10/07 12:11:49;;;;;;;11.70;4.18;;;20.80;75.00;;;;;;5052526;28;20474;-28
2023/10/07 12:14:16;;;;;;;10.57;3.70;;;20.80;74.80;;;;;;5052464;28;20025;-29
2023/10/07 12:16:43;;;;;;;9.55;3.70;;;20.90;75.00;;;;;;5050490;28;20020;-29
2023/10/07 12:19:11;;;;;;;8.82;3.20;;;21.00;74.70;;;;;;5052085;28;20029;-28
2023/10/07 12:21:39;;;;;;;7.88;3.65;;;21.00;74.60;;;;;;5051803;28;20381;-29
2023/10/07 12:24:06;;;;;;;10.07;3.70;;;21.10;74.40;;;;;;5052352;28;20388;-29
2023/10/07 12:26:31;;;;;;;11.20;3.75;;;21.20;74.00;;;;;;5051646;28;20120;-31
2023/10/07 12:28:58;;;;;;;10.02;4.07;;;21.30;74.00;;;;;;5051907;28;20178;-32
2023/10/07 12:31:24;;;;;;;13.40;4.00;;;21.30;73.20;;;;;;5051949;28;20480;-28
2023/10/07 12:33:50;;;;;;;12.52;3.70;;;21.30;73.30;;;;;;5051914;28;20028;-28
2023/10/07 12:36:18;;;;;;;10.52;4.35;;;21.30;73.30;;;;;;5051755;28;20082;-30
2023/10/07 12:38:44;;;;;;;13.57;4.93;;;21.20;73.50;;;;;;5051817;28;20396;-28
2023/10/07 12:41:12;;;;;;;9.70;4.25;;;21.20;73.60;;;;;;5051783;28;20125;-27
2023/10/07 12:43:38;;;;;;;11.90;4.53;;;21.10;73.90;;;;;;5051757;28;20017;-28
2023/10/07 12:46:09;;;;;;;12.38;4.18;;;21.10;74.10;;;;;;5051393;28;20028;-28
2023/10/07 12:48:37;;;;;;;11.82;4.63;;;21.00;74.20;;;;;;5051932;28;20053;-29
2023/10/07 12:51:06;;;;;;;8.18;3.40;;;21.10;74.40;;;;;;5051560;28;20017;-30
2023/10/07 12:53:35;;;;;;;9.10;3.58;;;21.10;74.50;;;;;;5050115;28;20057;-28
2023/10/07 12:56:14;;;;;;;10.50;3.75;;;21.20;74.10;;;;;;5051510;28;20082;-32
2023/10/07 12:58:42;;;;;;;14.38;4.60;;;21.30;73.70;;;;;;5051588;28;20090;-28
2023/10/07 13:01:12;;;;;;;11.00;3.85;;;21.40;73.50;;;;;;5051280;28;20117;-28
2023/10/07 13:03:45;;;;;;;11.02;4.78;;;21.40;73.50;;;;;;5051451;28;20028;-27
2023/10/07 13:06:14;;;;;;;13.75;4.57;;;21.40;73.10;;;;;;5051650;28;20469;-29
2023/10/07 13:08:40;;;;;;;10.18;4.53;;;21.50;73.10;;;;;;5051793;28;20029;-30
2023/10/07 13:11:13;;;;;;;9.00;4.10;;;21.50;73.00;;;;;;5051825;28;20155;-28
2023/10/07 13:13:42;;;;;;;;;;;21.50;73.10;;;;;;5051784;28;20033;-28
2023/10/07 13:16:12;;;;;;;8.38;3.65;;;21.50;73.00;;;;;;5051490;28;20242;-27
2023/10/07 13:18:42;;;;;;;11.90;3.92;;;21.40;72.70;;;;;;5051229;28;20025;-27
2023/10/07 13:21:13;;;;;;;9.55;3.88;;;21.50;72.30;;;;;;5051542;28;20103;-28
2023/10/07 13:23:40;;;;;;;12.65;4.45;;;21.40;72.10;;;;;;5051628;28;20147;-28
2023/10/07 13:26:10;;;;;;;10.32;4.00;;;21.30;72.10;;;;;;5051420;28;20149;-30
2023/10/07 13:28:38;;;;;;;12.65;4.30;;;21.30;72.50;;;;;;5051311;28;20497;-28
2023/10/07 13:31:08;;;;;;;9.27;4.20;;;21.20;72.60;;;;;;5051123;28;20104;-28
2023/10/07 13:33:36;;;;;;;8.70;4.07;;;21.20;72.90;;;;;;5051040;28;20021;-28
2023/10/07 13:36:03;;;;;;;13.68;4.13;;;21.20;73.10;;;;;;5049571;28;20025;-30
2023/10/07 13:38:29;;;;;;;8.95;3.78;;;21.20;73.30;;;;;;5051260;28;20024;-29
2023/10/07 13:40:55;;;;;;;9.98;4.20;;;21.20;73.40;;;;;;5051450;28;20091;-30
2023/10/07 13:43:21;;;;;;;12.38;4.18;;;21.20;73.30;;;;;;5051369;28;20051;-36
2023/10/07 13:45:47;;;;;;;9.57;4.00;;;21.10;73.30;;;;;;5049708;28;20049;-31
2023/10/07 13:48:13;;;;;;;10.85;4.78;;;21.10;74.10;;;;;;5050882;28;20074;-35
2023/10/07 13:50:40;;;;;;;12.70;3.95;;;21.00;73.70;;;;;;5051435;28;20086;-28